Terminal Aerodrome Forecast
Issued by NWS Albany, NY

Home | Current Version | Previous Version | Text Only | Print | Product List | Glossary On
Versions: 1 2 3 4 5 6 7 8 9 10 11 12 13 14
000
FTUS41 KALY 280534
TAFGFL
TAF
KGFL 280534Z 2806/2906 00000KT P6SM SKC
     FM280800 00000KT 3SM BR SKC
      TEMPO 2809/2811 1 1/2SM BR BKN006
     FM281200 VRB03KT P6SM SKC
     FM281800 24005KT P6SM SCT050
     FM290000 VRB03KT P6SM SKC=

USA.gov is the U.S. government's official web portal to all federal, state and local government web resources and services.